createdAt,value
2018-04-11T00:00:18.613Z,69.40
2018-04-11T00:02:49.791Z,69.40
2018-04-11T00:05:21.019Z,69.20
2018-04-11T00:07:52.202Z,69.40
2018-04-11T00:10:24.155Z,69.00
2018-04-11T00:12:55.375Z,68.90
2018-04-11T00:15:26.577Z,68.80
2018-04-11T00:17:58.525Z,68.80
2018-04-11T00:20:29.892Z,68.70
2018-04-11T00:23:01.089Z,69.00
2018-04-11T00:25:32.310Z,69.00
2018-04-11T00:28:03.506Z,68.90
2018-04-11T00:30:34.705Z,69.00
2018-04-11T00:33:05.865Z,69.00
2018-04-11T00:35:38.927Z,69.60
2018-04-11T00:38:10.122Z,69.00
2018-04-11T00:40:41.404Z,69.20
2018-04-11T00:43:12.604Z,69.00
2018-04-11T00:45:44.563Z,70.30
2018-04-11T00:48:16.458Z,69.50
2018-04-11T00:50:47.675Z,69.50
2018-04-11T00:53:26.698Z,69.80
2018-04-11T00:55:58.654Z,70.00
2018-04-11T00:58:29.818Z,69.80
2018-04-11T01:01:01.087Z,69.80
2018-04-11T01:03:32.251Z,70.00
2018-04-11T01:06:03.455Z,70.10
2018-04-11T01:08:34.647Z,70.30
2018-04-11T01:11:05.863Z,70.20
2018-04-11T01:13:37.035Z,70.40
2018-04-11T01:16:09.013Z,71.10
2018-04-11T01:18:41.216Z,70.80
2018-04-11T01:21:12.448Z,70.50
2018-04-11T01:23:43.900Z,70.50
2018-04-11T01:26:15.119Z,70.60
2018-04-11T01:28:47.066Z,70.80
2018-04-11T01:31:18.227Z,70.70
2018-04-11T01:33:49.677Z,71.10
2018-04-11T01:36:21.569Z,71.00
2018-04-11T01:38:52.752Z,71.00
2018-04-11T01:41:24.060Z,71.10
2018-04-11T01:43:55.326Z,71.30
2018-04-11T01:46:26.538Z,71.30
2018-04-11T01:48:57.726Z,71.40
2018-04-11T01:51:28.918Z,71.50
2018-04-11T01:54:00.173Z,71.50
2018-04-11T01:56:31.368Z,71.60
2018-04-11T01:59:02.561Z,72.10
2018-04-11T02:01:33.790Z,72.10
2018-04-11T02:04:04.979Z,72.00
2018-04-11T02:06:36.388Z,72.10
2018-04-11T02:09:07.580Z,72.30
2018-04-11T02:11:38.791Z,72.40
2018-04-11T02:14:10.019Z,72.70
2018-04-11T02:16:41.238Z,72.90
2018-04-11T02:19:12.424Z,73.00
2018-04-11T02:21:43.658Z,73.10
2018-04-11T02:24:14.836Z,73.30
2018-04-11T02:26:46.033Z,73.40
2018-04-11T02:29:17.303Z,73.60
2018-04-11T02:31:48.538Z,73.80
2018-04-11T02:34:19.743Z,74.20
2018-04-11T02:36:51.673Z,74.10
2018-04-11T02:39:23.170Z,74.90
2018-04-11T02:41:54.428Z,74.40
2018-04-11T02:44:25.611Z,74.50
2018-04-11T02:46:56.816Z,74.50
2018-04-11T02:49:28.018Z,74.40
2018-04-11T02:51:59.206Z,74.60
2018-04-11T02:54:30.409Z,74.60
2018-04-11T02:57:01.640Z,74.60
2018-04-11T02:59:32.853Z,74.60
2018-04-11T03:02:04.100Z,74.70
2018-04-11T03:04:35.254Z,74.70
2018-04-11T03:07:06.549Z,74.80
2018-04-11T03:09:37.739Z,74.90
2018-04-11T03:12:08.950Z,74.80
2018-04-11T03:14:40.147Z,74.60
2018-04-11T03:17:11.332Z,74.80
2018-04-11T03:19:42.625Z,74.70
2018-04-11T03:22:13.928Z,74.70
2018-04-11T03:24:45.486Z,74.60
2018-04-11T03:27:16.669Z,74.40
2018-04-11T03:29:47.915Z,74.20
2018-04-11T03:32:19.091Z,74.10
2018-04-11T03:34:51.042Z,74.20
2018-04-11T03:37:22.961Z,74.70
2018-04-11T03:39:54.171Z,74.20
2018-04-11T03:42:25.419Z,73.90
2018-04-11T03:44:56.974Z,73.80
2018-04-11T03:47:28.169Z,73.80
2018-04-11T03:49:59.368Z,73.90
2018-04-11T03:52:30.549Z,73.90
2018-04-11T03:55:01.911Z,73.80
2018-04-11T03:57:33.832Z,73.70
2018-04-11T04:00:05.009Z,73.60
2018-04-11T04:02:36.256Z,73.60
2018-04-11T04:05:07.456Z,73.60
2018-04-11T04:07:39.486Z,73.70
2018-04-11T04:10:10.716Z,73.60
2018-04-11T04:12:42.613Z,73.80
2018-04-11T04:15:26.157Z,73.80
2018-04-11T04:18:09.778Z,73.80
2018-04-11T04:20:41.014Z,73.90
2018-04-11T04:23:12.270Z,73.80
2018-04-11T04:25:43.630Z,74.10
2018-04-11T04:28:14.809Z,74.00
2018-04-11T04:30:46.308Z,74.10
2018-04-11T04:33:17.510Z,74.10
2018-04-11T04:35:48.722Z,74.10
2018-04-11T04:38:19.915Z,74.20
2018-04-11T04:40:51.164Z,74.40
2018-04-11T04:43:23.183Z,73.70
2018-04-11T04:45:55.126Z,74.60
2018-04-11T04:48:26.442Z,75.30
2018-04-11T04:50:57.636Z,74.50
2018-04-11T04:53:29.039Z,74.40
2018-04-11T04:56:00.230Z,74.40
2018-04-11T04:58:31.461Z,74.40
2018-04-11T05:01:02.671Z,74.80
2018-04-11T05:03:33.921Z,75.40
2018-04-11T05:06:05.132Z,76.10
2018-04-11T05:08:37.432Z,76.40
2018-04-11T05:11:08.650Z,76.30
2018-04-11T05:13:40.588Z,75.70
2018-04-11T05:16:11.825Z,75.70
2018-04-11T05:18:43.412Z,75.80
2018-04-11T05:21:15.382Z,75.00
2018-04-11T05:23:46.642Z,75.40
2018-04-11T05:26:17.846Z,75.60
2018-04-11T05:28:49.760Z,75.70
2018-04-11T05:31:21.007Z,75.70
2018-04-11T05:33:52.214Z,76.00
2018-04-11T05:36:23.489Z,75.50
2018-04-11T05:38:54.731Z,75.50
2018-04-11T05:41:25.934Z,75.80
2018-04-11T05:43:58.124Z,75.10
2018-04-11T05:46:29.365Z,75.10
2018-04-11T05:49:00.551Z,74.80
2018-04-11T05:51:31.761Z,74.30
2018-04-11T05:54:02.933Z,74.30
2018-04-11T05:56:34.340Z,74.60
2018-04-11T05:59:05.522Z,74.90
2018-04-11T06:01:36.722Z,75.00
2018-04-11T06:04:08.001Z,75.40
2018-04-11T06:06:39.314Z,75.10
2018-04-11T06:09:10.590Z,75.10
2018-04-11T06:11:41.869Z,75.00
2018-04-11T06:14:13.264Z,75.10
2018-04-11T06:16:44.463Z,75.10
2018-04-11T06:19:15.850Z,75.10
2018-04-11T06:21:47.018Z,75.40
2018-04-11T06:24:18.402Z,74.60
2018-04-11T06:26:49.615Z,74.40
2018-04-11T06:29:20.859Z,74.40
2018-04-11T06:31:52.041Z,74.90
2018-04-11T06:34:24.136Z,73.90
2018-04-11T06:36:55.295Z,73.80
2018-04-11T06:39:27.346Z,73.20
2018-04-11T06:41:58.564Z,73.20
2018-04-11T06:44:30.557Z,73.30
2018-04-11T06:47:01.762Z,73.20
2018-04-11T06:49:32.945Z,73.10
2018-04-11T06:52:04.386Z,72.90
2018-04-11T06:54:35.594Z,73.00
2018-04-11T06:57:08.349Z,72.20
2018-04-11T06:59:39.529Z,72.20
2018-04-11T07:02:10.777Z,72.30
2018-04-11T07:04:42.057Z,72.30
2018-04-11T07:07:13.320Z,72.30
2018-04-11T07:09:44.546Z,72.30
2018-04-11T07:12:15.697Z,72.30
2018-04-11T07:14:47.252Z,72.40
2018-04-11T07:17:18.550Z,72.10
2018-04-11T07:19:49.934Z,72.80
2018-04-11T07:22:21.392Z,71.50
2018-04-11T07:24:52.617Z,71.40
2018-04-11T07:27:24.172Z,71.40
2018-04-11T07:29:55.378Z,71.70
2018-04-11T07:32:26.646Z,72.00
2018-04-11T07:34:57.895Z,71.50
2018-04-11T07:37:29.152Z,71.40
2018-04-11T07:40:00.352Z,70.90
2018-04-11T07:42:32.300Z,69.50
2018-04-11T07:45:03.643Z,70.20
2018-04-11T07:47:34.882Z,70.20
2018-04-11T07:50:06.114Z,70.60
2018-04-11T07:52:37.405Z,70.50
2018-04-11T07:55:08.654Z,69.90
2018-04-11T07:57:40.579Z,69.60
2018-04-11T08:00:11.891Z,69.60
2018-04-11T08:02:43.070Z,69.60
2018-04-11T08:05:14.695Z,70.00
2018-04-11T08:07:45.882Z,70.20
2018-04-11T08:10:17.139Z,70.30
2018-04-11T08:12:48.457Z,70.10
2018-04-11T08:15:19.707Z,69.90
2018-04-11T08:17:52.049Z,69.60
2018-04-11T08:20:23.638Z,69.50
2018-04-11T08:22:54.838Z,69.40
2018-04-11T08:25:26.256Z,68.90
2018-04-11T08:27:57.498Z,68.80
2018-04-11T08:30:28.753Z,68.70
2018-04-11T08:32:59.977Z,68.80
2018-04-11T08:35:32.201Z,68.80
2018-04-11T08:38:03.633Z,68.80
2018-04-11T08:40:34.813Z,68.90
2018-04-11T08:43:07.025Z,68.00
2018-04-11T08:45:38.300Z,67.90
2018-04-11T08:48:09.588Z,67.40
2018-04-11T08:50:40.939Z,67.40
2018-04-11T08:53:12.167Z,67.00
2018-04-11T08:55:44.154Z,66.70
2018-04-11T08:58:16.069Z,66.60
2018-04-11T09:00:47.357Z,66.60
2018-04-11T09:03:19.301Z,66.10
2018-04-11T09:05:51.319Z,65.70
2018-04-11T09:08:22.601Z,65.70
2018-04-11T09:10:54.581Z,65.00
2018-04-11T09:13:25.915Z,65.00
2018-04-11T09:15:57.326Z,64.80
2018-04-11T09:18:29.332Z,64.10
2018-04-11T09:21:01.293Z,64.50
2018-04-11T09:23:33.256Z,64.20
2018-04-11T09:26:05.283Z,64.20
2018-04-11T09:28:37.306Z,63.70
2018-04-11T09:31:08.520Z,63.70
2018-04-11T09:33:55.574Z,63.30
2018-04-11T09:36:26.764Z,63.30
2018-04-11T09:38:58.744Z,62.90
2018-04-11T09:41:30.710Z,62.70
2018-04-11T09:44:02.191Z,62.60
2018-04-11T09:46:33.527Z,62.80
2018-04-11T09:49:05.002Z,62.60
2018-04-11T09:51:36.224Z,63.00
2018-04-11T09:54:07.440Z,62.90
2018-04-11T09:56:39.351Z,62.70
2018-04-11T09:59:10.572Z,62.60
2018-04-11T10:01:47.998Z,63.20
2018-04-11T10:04:19.250Z,63.00
2018-04-11T10:06:50.512Z,62.50
2018-04-11T10:09:21.896Z,62.60
2018-04-11T10:11:53.146Z,62.30
2018-04-11T10:14:24.702Z,62.20
2018-04-11T10:16:55.968Z,60.60
2018-04-11T10:19:27.199Z,59.90
2018-04-11T10:21:58.436Z,60.10
2018-04-11T10:24:29.685Z,60.30
2018-04-11T10:27:00.973Z,60.50
2018-04-11T10:29:32.154Z,59.70
2018-04-11T10:32:03.390Z,60.30
2018-04-11T10:34:34.608Z,60.60
2018-04-11T10:37:06.005Z,60.50
2018-04-11T10:39:37.183Z,60.60
2018-04-11T10:42:08.411Z,60.20
2018-04-11T10:44:39.858Z,59.80
2018-04-11T10:47:11.125Z,60.20
2018-04-11T10:49:47.468Z,60.40
2018-04-11T10:52:19.454Z,60.70
2018-04-11T10:54:50.673Z,60.50
2018-04-11T10:57:22.792Z,60.70
2018-04-11T10:59:54.051Z,60.50
2018-04-11T11:02:25.302Z,60.70
2018-04-11T11:04:56.854Z,59.80
2018-04-11T11:07:28.081Z,59.80
2018-04-11T11:10:00.062Z,60.80
2018-04-11T11:12:31.302Z,60.60
2018-04-11T11:15:02.523Z,60.60
2018-04-11T11:17:33.732Z,61.30
2018-04-11T11:20:04.971Z,61.00
2018-04-11T11:22:36.181Z,60.60
2018-04-11T11:25:07.475Z,60.50
2018-04-11T11:27:38.812Z,60.40
2018-04-11T11:30:10.063Z,60.30
2018-04-11T11:32:41.308Z,61.00
2018-04-11T11:35:12.601Z,60.40
2018-04-11T11:37:43.828Z,59.40
2018-04-11T11:40:15.841Z,59.30
2018-04-11T11:42:47.083Z,58.80
2018-04-11T11:45:18.360Z,59.20
2018-04-11T11:47:51.167Z,58.80
2018-04-11T11:50:22.504Z,58.80
2018-04-11T11:52:54.481Z,57.10
2018-04-11T11:55:26.458Z,56.60
2018-04-11T11:57:57.636Z,56.60
2018-04-11T12:00:28.911Z,56.50
2018-04-11T12:03:00.826Z,57.40
2018-04-11T12:05:32.135Z,57.00
2018-04-11T12:08:03.404Z,57.50
2018-04-11T12:10:36.278Z,57.50
2018-04-11T12:13:07.463Z,57.50
2018-04-11T12:15:38.697Z,57.10
2018-04-11T12:18:09.969Z,56.80
2018-04-11T12:20:41.152Z,56.20
2018-04-11T12:23:12.378Z,56.30
2018-04-11T12:25:43.614Z,56.20
2018-04-11T12:28:15.013Z,56.10
2018-04-11T12:30:46.246Z,56.00
2018-04-11T12:33:17.462Z,56.20
2018-04-11T12:35:49.445Z,56.00
2018-04-11T12:38:20.691Z,56.00
2018-04-11T12:40:52.002Z,56.20
2018-04-11T12:43:23.969Z,56.60
2018-04-11T12:45:55.196Z,56.60
2018-04-11T12:48:26.490Z,56.00
2018-04-11T12:50:57.670Z,56.90
2018-04-11T12:53:28.891Z,57.20
2018-04-11T12:56:00.155Z,57.60
2018-04-11T12:58:31.489Z,57.80
2018-04-11T13:01:02.647Z,57.70
2018-04-11T13:03:33.870Z,57.40
2018-04-11T13:06:05.171Z,57.70
2018-04-11T13:08:36.517Z,57.50
2018-04-11T13:11:07.746Z,57.20
2018-04-11T13:13:39.705Z,57.60
2018-04-11T13:16:11.741Z,57.50
2018-04-11T13:18:44.508Z,57.60
2018-04-11T13:21:15.770Z,57.40
2018-04-11T13:23:47.014Z,57.50
2018-04-11T13:26:18.287Z,57.50
2018-04-11T13:28:49.890Z,58.30
2018-04-11T13:31:21.088Z,58.50
2018-04-11T13:33:53.348Z,58.20
2018-04-11T13:36:25.334Z,58.20
2018-04-11T13:38:56.588Z,58.20
2018-04-11T13:41:28.728Z,58.20
2018-04-11T13:44:00.223Z,58.00
2018-04-11T13:46:31.450Z,57.60
2018-04-11T13:49:03.461Z,57.50
2018-04-11T13:51:35.507Z,58.10
2018-04-11T13:54:06.770Z,57.50
2018-04-11T13:56:37.963Z,57.50
2018-04-11T13:59:09.414Z,57.40
2018-04-11T14:01:40.663Z,57.50
2018-04-11T14:04:11.931Z,57.40
2018-04-11T14:06:43.237Z,57.40
2018-04-11T14:09:15.543Z,57.80
2018-04-11T14:11:49.330Z,57.80
2018-04-11T14:14:20.827Z,57.90
2018-04-11T14:16:52.053Z,57.30
2018-04-11T14:19:23.319Z,56.20
2018-04-11T14:21:55.372Z,55.50
2018-04-11T14:24:26.768Z,55.80
2018-04-11T14:26:58.324Z,57.10
2018-04-11T14:29:29.743Z,57.40
2018-04-11T14:32:00.971Z,57.50
2018-04-11T14:34:32.227Z,57.60
2018-04-11T14:37:04.230Z,57.60
2018-04-11T14:39:35.435Z,57.60
2018-04-11T14:42:07.420Z,57.40
2018-04-11T14:44:38.658Z,57.40
2018-04-11T14:47:10.174Z,57.30
2018-04-11T14:49:42.346Z,58.00
2018-04-11T14:52:13.619Z,58.10
2018-04-11T14:54:45.549Z,58.20
2018-04-11T14:57:16.787Z,58.20
2018-04-11T14:59:48.041Z,58.50
2018-04-11T15:02:19.257Z,58.80
2018-04-11T15:04:50.564Z,58.90
2018-04-11T15:07:21.868Z,59.00
2018-04-11T15:09:53.284Z,59.10
2018-04-11T15:12:25.070Z,59.20
2018-04-11T15:14:56.572Z,59.10
2018-04-11T15:17:27.909Z,59.10
2018-04-11T15:20:00.048Z,59.50
2018-04-11T15:22:31.428Z,59.50
2018-04-11T15:25:02.720Z,59.70
2018-04-11T15:27:33.973Z,59.60
2018-04-11T15:30:05.274Z,59.60
2018-04-11T15:32:36.524Z,59.60
2018-04-11T15:35:07.749Z,59.40
2018-04-11T15:37:38.960Z,59.50
2018-04-11T15:40:10.214Z,59.50
2018-04-11T15:42:42.143Z,59.80
2018-04-11T15:45:13.406Z,59.70
2018-04-11T15:47:45.340Z,60.00
2018-04-11T15:50:16.609Z,59.80
2018-04-11T15:52:47.859Z,59.70
2018-04-11T15:55:20.180Z,60.30
2018-04-11T15:57:51.399Z,60.30
2018-04-11T16:00:23.345Z,60.40
2018-04-11T16:02:55.496Z,60.80
2018-04-11T16:05:26.823Z,60.80
2018-04-11T16:07:58.034Z,61.00
2018-04-11T16:10:29.310Z,61.20
2018-04-11T16:13:00.533Z,61.50
2018-04-11T16:15:31.746Z,61.70
2018-04-11T16:18:02.991Z,61.80
2018-04-11T16:20:34.992Z,61.10
2018-04-11T16:23:06.181Z,61.20
2018-04-11T16:25:37.444Z,61.50
2018-04-11T16:28:08.719Z,62.20
2018-04-11T16:30:39.962Z,62.20
2018-04-11T16:33:11.177Z,62.20
2018-04-11T16:35:43.107Z,62.80
2018-04-11T16:38:14.318Z,62.80
2018-04-11T16:40:45.547Z,62.80
2018-04-11T16:43:16.811Z,62.90
2018-04-11T16:45:48.035Z,63.10
2018-04-11T16:48:19.328Z,63.10
2018-04-11T16:50:50.623Z,63.20
2018-04-11T16:53:21.959Z,63.60
2018-04-11T16:55:53.887Z,63.80
2018-04-11T16:58:25.126Z,63.80
2018-04-11T17:00:56.303Z,64.10
2018-04-11T17:03:28.701Z,64.40
2018-04-11T17:06:00.034Z,64.30
2018-04-11T17:08:31.295Z,64.60
2018-04-11T17:11:02.533Z,64.40
2018-04-11T17:13:33.820Z,64.80
2018-04-11T17:16:05.253Z,64.80
2018-04-11T17:18:36.457Z,64.50
2018-04-11T17:21:20.378Z,64.80
2018-04-11T17:24:18.074Z,64.80
2018-04-11T17:27:02.371Z,63.20
2018-04-11T17:29:46.038Z,63.90
2018-04-11T17:32:18.330Z,63.60
2018-04-11T17:34:49.523Z,62.80
2018-04-11T17:37:20.787Z,63.00
2018-04-11T17:39:52.721Z,64.50
2018-04-11T17:42:23.927Z,64.50
2018-04-11T17:44:55.199Z,65.30
2018-04-11T17:47:26.473Z,65.70
2018-04-11T17:49:57.800Z,66.00
2018-04-11T17:52:29.005Z,66.10
2018-04-11T17:55:00.255Z,66.20
2018-04-11T17:57:31.474Z,66.30
2018-04-11T18:00:03.414Z,67.80
2018-04-11T18:02:35.471Z,67.30
2018-04-11T18:05:06.719Z,67.20
2018-04-11T18:07:38.732Z,67.70
2018-04-11T18:10:09.986Z,67.60
2018-04-11T18:12:41.206Z,67.70
2018-04-11T18:15:12.454Z,67.80
2018-04-11T18:17:43.670Z,67.90
2018-04-11T18:20:15.892Z,68.30
2018-04-11T18:22:47.107Z,68.30
2018-04-11T18:25:18.345Z,68.60
2018-04-11T18:27:49.596Z,68.70
2018-04-11T18:30:20.845Z,68.60
2018-04-11T18:32:52.470Z,68.60
2018-04-11T18:35:23.705Z,68.80
2018-04-11T18:37:55.648Z,68.80
2018-04-11T18:40:26.896Z,69.60
2018-04-11T18:42:58.857Z,68.90
2018-04-11T18:45:30.162Z,68.80
2018-04-11T18:48:01.353Z,68.90
2018-04-11T18:50:32.678Z,69.20
2018-04-11T18:53:03.976Z,69.40
2018-04-11T18:55:35.200Z,69.40
2018-04-11T18:58:07.136Z,69.40
2018-04-11T19:00:38.388Z,69.30
2018-04-11T19:03:09.600Z,69.40
2018-04-11T19:05:41.306Z,69.40
2018-04-11T19:08:12.545Z,69.40
2018-04-11T19:10:44.571Z,69.50
2018-04-11T19:13:15.957Z,69.40
2018-04-11T19:15:47.251Z,69.50
2018-04-11T19:18:18.444Z,69.40
2018-04-11T19:20:49.704Z,69.40
2018-04-11T19:23:20.896Z,69.40
2018-04-11T19:25:52.120Z,69.50
2018-04-11T19:28:23.325Z,69.60
2018-04-11T19:30:55.315Z,69.80
2018-04-11T19:33:26.593Z,69.50
2018-04-11T19:35:57.834Z,69.60
2018-04-11T19:38:29.062Z,69.70
2018-04-11T19:41:00.346Z,69.70
2018-04-11T19:43:31.704Z,69.70
2018-04-11T19:46:03.027Z,69.70
2018-04-11T19:48:34.372Z,69.80
2018-04-11T19:51:05.597Z,69.90
2018-04-11T19:53:36.884Z,70.00
2018-04-11T19:56:08.167Z,70.10
2018-04-11T19:58:39.932Z,70.10
2018-04-11T20:01:11.193Z,70.20
2018-04-11T20:03:42.414Z,70.10
2018-04-11T20:06:13.596Z,70.10
2018-04-11T20:08:44.903Z,70.10
2018-04-11T20:11:16.123Z,70.10
2018-04-11T20:13:47.461Z,70.20
2018-04-11T20:16:19.397Z,70.40
2018-04-11T20:18:50.812Z,70.30
2018-04-11T20:21:21.997Z,70.30
2018-04-11T20:23:53.210Z,70.50
2018-04-11T20:26:25.461Z,70.50
2018-04-11T20:28:56.699Z,70.50
2018-04-11T20:31:27.898Z,70.90
2018-04-11T20:33:59.291Z,71.00
2018-04-11T20:36:30.532Z,71.10
2018-04-11T20:39:02.011Z,71.30
2018-04-11T20:41:33.188Z,71.40
2018-04-11T20:44:05.940Z,72.00
2018-04-11T20:46:37.182Z,71.30
2018-04-11T20:49:08.398Z,71.60
2018-04-11T20:51:39.613Z,71.70
2018-04-11T20:54:10.998Z,71.70
2018-04-11T20:56:42.199Z,71.80
2018-04-11T20:59:14.197Z,71.90
2018-04-11T21:01:45.480Z,71.90
2018-04-11T21:04:16.991Z,71.80
2018-04-11T21:06:48.199Z,71.90
2018-04-11T21:09:20.209Z,71.50
2018-04-11T21:11:52.106Z,71.50
2018-04-11T21:14:23.609Z,71.40
2018-04-11T21:16:54.843Z,71.30
2018-04-11T21:19:26.863Z,72.00
2018-04-11T21:21:58.113Z,72.00
2018-04-11T21:24:30.048Z,73.00
2018-04-11T21:27:01.313Z,72.20
2018-04-11T21:29:32.535Z,72.30
2018-04-11T21:32:03.757Z,72.40
2018-04-11T21:34:35.055Z,72.50
2018-04-11T21:37:06.299Z,72.40
2018-04-11T21:39:37.482Z,72.50
2018-04-11T21:42:08.724Z,72.70
2018-04-11T21:44:39.890Z,72.70
2018-04-11T21:47:11.245Z,72.90
2018-04-11T21:49:42.422Z,73.10
2018-04-11T21:52:13.649Z,73.30
2018-04-11T21:54:44.867Z,73.20
2018-04-11T21:57:16.051Z,73.20
2018-04-11T21:59:47.249Z,73.00
2018-04-11T22:02:18.426Z,73.20
2018-04-11T22:04:49.623Z,73.30
2018-04-11T22:07:20.815Z,73.30
2018-04-11T22:09:51.997Z,73.30
2018-04-11T22:12:23.202Z,73.20
2018-04-11T22:14:54.414Z,73.90
2018-04-11T22:17:25.617Z,73.90
2018-04-11T22:19:57.707Z,73.30
2018-04-11T22:22:28.916Z,73.30
2018-04-11T22:25:01.218Z,73.40
2018-04-11T22:27:32.471Z,73.70
2018-04-11T22:30:03.678Z,73.90
2018-04-11T22:32:35.629Z,73.80
2018-04-11T22:35:06.891Z,73.90
2018-04-11T22:37:38.833Z,74.00
2018-04-11T22:40:10.039Z,74.00
2018-04-11T22:42:41.260Z,74.30
2018-04-11T22:45:12.489Z,74.40
2018-04-11T22:47:44.411Z,74.60
2018-04-11T22:50:15.658Z,74.50
2018-04-11T22:52:46.873Z,74.60
2018-04-11T22:55:18.146Z,74.50
2018-04-11T22:57:49.299Z,74.70
2018-04-11T23:00:20.899Z,74.70
2018-04-11T23:02:52.087Z,74.90
2018-04-11T23:05:23.302Z,74.90
2018-04-11T23:07:54.478Z,75.30
2018-04-11T23:10:25.704Z,75.30
2018-04-11T23:12:56.933Z,75.30
2018-04-11T23:15:28.201Z,75.30
2018-04-11T23:17:59.414Z,75.30
2018-04-11T23:20:30.925Z,75.10
2018-04-11T23:23:02.164Z,75.00
2018-04-11T23:25:34.119Z,74.90
2018-04-11T23:28:05.342Z,74.80
2018-04-11T23:30:36.576Z,74.80
2018-04-11T23:33:07.754Z,74.70
2018-04-11T23:35:39.793Z,75.00
2018-04-11T23:38:11.005Z,74.40
2018-04-11T23:40:42.248Z,74.20
2018-04-11T23:43:13.430Z,74.20
2018-04-11T23:45:44.667Z,74.00
2018-04-11T23:48:15.835Z,73.80
2018-04-11T23:50:47.782Z,73.60
2018-04-11T23:53:19.752Z,73.60
2018-04-11T23:55:51.771Z,73.40
2018-04-11T23:58:22.943Z,73.40
